createdAt,value
2018-02-12T00:44:20.830Z,99796.39
2018-02-12T00:46:48.433Z,99795.67
2018-02-12T00:49:15.256Z,99809.80
2018-02-12T01:09:43.013Z,99826.52
2018-02-12T01:12:10.216Z,99833.73
2018-02-12T01:14:36.828Z,99827.89
2018-02-12T01:17:04.713Z,99826.89
2018-02-12T01:19:31.684Z,99836.22
2018-02-12T01:21:59.226Z,99835.11
2018-02-12T01:24:28.507Z,99842.60
2018-02-12T01:48:10.448Z,99854.06
2018-02-12T01:50:37.078Z,99847.83
2018-02-12T01:53:04.565Z,99852.42
2018-02-12T01:55:31.197Z,99851.98
2018-02-12T01:57:57.790Z,99857.52
2018-02-12T02:00:24.450Z,99854.72
2018-02-12T02:02:53.407Z,99858.83
2018-02-12T02:23:22.419Z,99885.70
2018-02-12T02:25:49.096Z,99882.75
2018-02-12T02:55:19.523Z,99898.75
2018-02-12T02:57:46.264Z,99893.23
2018-02-12T03:00:12.981Z,99898.37
2018-02-12T03:02:39.670Z,99899.45
2018-02-12T03:05:06.331Z,99904.73
2018-02-12T03:07:34.917Z,99902.78
2018-02-12T03:10:02.652Z,99910.42
2018-02-12T03:12:29.415Z,99913.97
2018-02-12T03:14:58.366Z,99920.56
2018-02-12T03:17:25.092Z,99922.66
2018-02-12T03:19:54.950Z,99917.19
2018-02-12T03:22:21.760Z,99923.23
2018-02-12T03:24:48.490Z,99928.73
2018-02-12T03:27:15.258Z,99928.75
2018-02-12T03:29:41.967Z,99935.89
2018-02-12T03:32:24.043Z,99942.27
2018-02-12T03:34:52.505Z,99936.19
2018-02-12T03:37:19.251Z,99940.53
2018-02-12T03:39:47.702Z,99943.58
2018-02-12T03:42:14.355Z,99941.16
2018-02-12T03:44:41.082Z,99950.67
2018-02-12T03:47:07.809Z,99948.98
2018-02-12T03:49:34.620Z,99959.92
2018-02-12T03:52:01.313Z,99954.44
2018-02-12T03:54:28.720Z,99957.42
2018-02-12T03:56:55.409Z,99953.70
2018-02-12T03:59:22.097Z,99961.09
2018-02-12T04:01:49.586Z,99962.30
2018-02-12T04:04:16.185Z,99968.04
2018-02-12T04:06:42.944Z,99963.45
2018-02-12T04:09:10.197Z,99965.51
2018-02-12T04:14:36.952Z,99975.93
2018-02-12T04:17:03.621Z,99977.92
2018-02-12T04:19:30.244Z,99979.91
2018-02-12T04:21:56.906Z,99979.33
2018-02-12T04:27:24.031Z,99987.36
2018-02-12T04:29:50.760Z,99990.20
2018-02-12T04:32:19.236Z,99989.16
2018-02-12T04:34:45.985Z,99985.69
2018-02-12T04:37:12.780Z,99987.30
2018-02-12T04:39:40.451Z,99985.93
2018-02-12T04:42:07.876Z,99991.16
2018-02-12T04:44:34.624Z,100001.26
2018-02-12T04:47:02.484Z,100006.47
2018-02-12T04:49:32.070Z,100007.30
2018-02-12T04:52:04.729Z,100011.95
2018-02-12T04:54:31.410Z,100013.20
2018-02-12T04:56:58.143Z,100010.34
2018-02-12T04:59:24.851Z,100021.56
2018-02-12T05:02:03.630Z,100022.36
2018-02-12T05:04:30.386Z,100027.23
2018-02-12T05:07:00.419Z,100029.70
2018-02-12T05:09:27.104Z,100029.52
2018-02-12T05:11:56.125Z,100034.35
2018-02-12T05:14:24.774Z,100043.38
2018-02-12T05:16:51.585Z,100045.59
2018-02-12T05:19:18.334Z,100051.74
2018-02-12T05:21:45.020Z,100049.79
2018-02-12T05:24:13.353Z,100054.08
2018-02-12T05:26:40.097Z,100052.89
2018-02-12T05:29:21.552Z,100060.87
2018-02-12T05:31:49.950Z,100048.82
2018-02-12T05:34:32.636Z,100054.91
2018-02-12T05:37:00.582Z,100056.97
2018-02-12T05:39:29.430Z,100062.61
2018-02-12T05:41:56.126Z,100062.84
2018-02-12T05:44:22.783Z,100067.82
2018-02-12T05:46:49.497Z,100074.57
2018-02-12T05:49:17.742Z,100072.60
2018-02-12T05:51:44.463Z,100071.48
2018-02-12T05:54:11.196Z,100077.33
2018-02-12T05:56:38.357Z,100082.98
2018-02-12T05:59:05.161Z,100084.58
2018-02-12T06:01:31.883Z,100092.50
2018-02-12T06:10:56.276Z,100110.20
2018-02-12T06:20:07.989Z,100115.20
2018-02-12T06:22:46.847Z,100120.20
2018-02-12T06:59:26.331Z,100179.69
2018-02-12T07:01:55.455Z,100181.25
2018-02-12T07:04:27.717Z,100184.52
2018-02-12T07:06:55.742Z,100182.84
2018-02-12T07:09:40.564Z,100192.92
2018-02-12T07:22:01.699Z,100219.01
2018-02-12T07:34:49.903Z,100229.82
2018-02-12T07:40:46.920Z,100230.89
2018-02-12T08:38:19.983Z,100304.97
2018-02-12T08:40:49.031Z,100306.31
2018-02-12T08:43:15.788Z,100316.16
2018-02-12T08:45:48.927Z,100319.97
2018-02-12T08:51:48.075Z,100320.94
2018-02-12T08:54:14.934Z,100331.37
2018-02-12T09:17:54.000Z,100363.39
2018-02-12T09:47:09.380Z,100402.63
2018-02-12T09:49:36.098Z,100405.00
2018-02-12T09:52:02.879Z,100407.72
2018-02-12T09:54:29.560Z,100413.66
2018-02-12T09:56:56.289Z,100416.48
2018-02-12T09:59:22.934Z,100415.48
2018-02-12T10:01:49.655Z,100420.78
2018-02-12T10:04:16.295Z,100424.50
2018-02-12T10:06:43.075Z,100432.34
2018-02-12T10:33:33.784Z,100462.69
2018-02-12T10:36:00.480Z,100463.02
2018-02-12T10:38:27.249Z,100470.36
2018-02-12T10:40:54.120Z,100470.31
2018-02-12T10:43:20.849Z,100473.36
2018-02-12T10:45:47.509Z,100477.17
2018-02-12T10:48:14.363Z,100472.81
2018-02-12T10:50:41.095Z,100475.00
2018-02-12T10:53:07.806Z,100478.00
2018-02-12T10:55:34.483Z,100476.91
2018-02-12T10:58:02.330Z,100484.36
2018-02-12T11:00:29.071Z,100482.56
2018-02-12T11:02:55.896Z,100478.70
2018-02-12T11:05:23.261Z,100480.45
2018-02-12T11:07:51.749Z,100485.34
2018-02-12T11:10:18.722Z,100484.37
2018-02-12T11:12:45.641Z,100480.61
2018-02-12T11:15:12.749Z,100493.61
2018-02-12T11:17:40.383Z,100488.72
2018-02-12T11:20:07.139Z,100489.49
2018-02-12T11:50:27.189Z,100502.00
2018-02-12T11:52:53.874Z,100495.86
2018-02-12T11:55:20.508Z,100502.05
2018-02-12T11:57:47.230Z,100501.73
2018-02-12T12:00:13.836Z,100503.03
2018-02-12T12:02:40.469Z,100505.58
2018-02-12T12:26:07.394Z,100513.75
2018-02-12T12:28:34.145Z,100517.95
2018-02-12T12:31:00.903Z,100521.42
2018-02-12T12:33:27.634Z,100518.32
2018-02-12T12:35:54.357Z,100518.32
2018-02-12T12:38:21.034Z,100521.27
2018-02-12T12:40:47.681Z,100522.38
2018-02-12T12:43:14.825Z,100529.84
2018-02-12T12:45:41.739Z,100528.19
2018-02-12T12:48:08.416Z,100520.64
2018-02-12T12:50:35.283Z,100519.88
2018-02-12T12:53:04.918Z,100513.28
2018-02-12T13:13:32.895Z,100527.66
2018-02-12T13:16:04.069Z,100521.78
2018-02-12T13:39:09.383Z,100515.17
2018-02-12T13:41:36.220Z,100512.12
2018-02-12T13:44:03.058Z,100528.53
2018-02-12T13:46:29.930Z,100532.00
2018-02-12T13:48:56.974Z,100532.05
2018-02-12T13:51:24.519Z,100516.94
2018-02-12T13:53:51.336Z,100526.08
2018-02-12T13:56:18.367Z,100513.56
2018-02-12T14:16:45.225Z,100516.00
2018-02-12T14:19:11.884Z,100515.33
2018-02-12T14:21:38.533Z,100512.31
2018-02-12T14:24:05.242Z,100517.41
2018-02-12T14:26:32.899Z,100515.97
2018-02-12T14:28:59.622Z,100517.59
2018-02-12T14:31:26.307Z,100520.23
2018-02-12T14:33:53.280Z,100523.19
2018-02-12T14:36:20.951Z,100514.31
2018-02-12T14:38:47.677Z,100532.09
2018-02-12T14:59:14.794Z,100530.04
2018-02-12T15:01:41.517Z,100532.47
2018-02-12T15:04:09.055Z,100534.59
2018-02-12T15:06:35.769Z,100539.14
2018-02-12T15:09:02.660Z,100535.45
2018-02-12T15:11:29.435Z,100540.51
2018-02-12T15:13:56.987Z,100546.44
2018-02-12T15:16:23.967Z,100549.23
2018-02-12T15:18:51.506Z,100547.61
2018-02-12T15:21:18.224Z,100555.05
2018-02-12T15:23:44.941Z,100557.16
2018-02-12T15:26:11.631Z,100565.69
2018-02-12T15:28:38.417Z,100579.19
2018-02-12T15:31:05.236Z,100576.59
2018-02-12T15:33:31.982Z,100572.56
2018-02-12T15:35:58.716Z,100570.61
2018-02-12T15:38:25.336Z,100578.25
2018-02-12T15:40:52.917Z,100575.63
2018-02-12T15:43:20.260Z,100576.30
2018-02-12T15:45:47.082Z,100575.58
2018-02-12T16:06:14.088Z,100602.25
2018-02-12T16:08:40.808Z,100593.11
2018-02-12T16:11:07.365Z,100593.59
2018-02-12T16:13:33.980Z,100594.81
2018-02-12T16:16:00.571Z,100596.56
2018-02-12T16:18:27.207Z,100592.63
2018-02-12T16:20:54.543Z,100595.63
2018-02-12T16:23:21.201Z,100598.44
2018-02-12T16:25:47.832Z,100600.18
2018-02-12T16:28:14.492Z,100607.39
2018-02-12T16:30:41.065Z,100605.76
2018-02-12T16:33:07.679Z,100607.35
2018-02-12T16:35:34.278Z,100608.22
2018-02-12T16:38:00.901Z,100606.37
2018-02-12T16:40:27.557Z,100614.20
2018-02-12T16:42:54.190Z,100609.91
2018-02-12T16:45:20.759Z,100616.69
2018-02-12T16:47:47.476Z,100613.30
2018-02-12T16:50:14.077Z,100618.29
2018-02-12T16:52:40.736Z,100624.92
2018-02-12T16:55:07.314Z,100631.49
2018-02-12T16:57:33.930Z,100632.37
2018-02-12T17:00:01.262Z,100637.40
2018-02-12T17:02:28.041Z,100635.18
2018-02-12T17:04:54.677Z,100643.87
2018-02-12T17:07:21.297Z,100642.62
2018-02-12T17:09:47.868Z,100638.27
2018-02-12T17:12:14.528Z,100644.50
2018-02-12T17:14:41.188Z,100647.13
2018-02-12T17:17:07.813Z,100647.21
2018-02-12T17:19:34.463Z,100645.08
2018-02-12T17:22:01.148Z,100649.83
2018-02-12T17:24:28.490Z,100656.80
2018-02-12T17:26:55.944Z,100654.28
2018-02-12T17:29:22.554Z,100662.98
2018-02-12T17:31:49.205Z,100661.38
2018-02-12T17:34:16.624Z,100661.91
2018-02-12T17:36:43.305Z,100659.73
2018-02-12T17:39:10.749Z,100667.27
2018-02-12T17:41:37.376Z,100672.66
2018-02-12T17:44:04.113Z,100672.31
2018-02-12T17:46:30.760Z,100677.45
2018-02-12T17:48:58.273Z,100680.03
2018-02-12T17:51:33.054Z,100678.80
2018-02-12T17:54:04.226Z,100682.41
2018-02-12T17:56:31.914Z,100682.02
2018-02-12T17:58:58.705Z,100685.50
2018-02-12T18:01:26.158Z,100688.24
2018-02-12T18:03:53.317Z,100695.38
2018-02-12T18:06:20.275Z,100694.64
2018-02-12T18:08:50.635Z,100689.55
2018-02-12T18:11:18.465Z,100700.03
2018-02-12T18:13:47.423Z,100694.94
2018-02-12T18:16:14.257Z,100698.94
2018-02-12T18:18:41.930Z,100698.94
2018-02-12T18:21:08.932Z,100696.68
2018-02-12T18:23:37.090Z,100700.24
2018-02-12T18:26:03.822Z,100709.45
2018-02-12T18:28:39.264Z,100700.72
2018-02-12T18:31:09.547Z,100704.05
2018-02-12T18:33:37.547Z,100707.45
2018-02-12T18:36:05.807Z,100717.61
2018-02-12T18:38:34.110Z,100707.39
2018-02-12T18:41:05.700Z,100708.27
2018-02-12T18:43:33.201Z,100711.05
2018-02-12T18:54:59.563Z,100712.61
2018-02-12T18:57:29.796Z,100713.05
2018-02-12T18:59:59.684Z,100710.00
2018-02-12T19:02:28.665Z,100719.19
2018-02-12T19:04:56.766Z,100721.45
2018-02-12T19:07:24.998Z,100722.76
2018-02-12T19:09:52.988Z,100722.63
2018-02-12T19:12:50.468Z,100720.19
2018-02-12T19:15:18.576Z,100721.50
2018-02-12T19:17:46.483Z,100721.32
2018-02-12T19:20:14.652Z,100718.05
2018-02-12T19:22:52.612Z,100721.97
2018-02-12T19:25:21.285Z,100728.90
2018-02-12T19:27:49.691Z,100720.31
2018-02-12T19:30:18.726Z,100728.20
2018-02-12T19:32:46.909Z,100731.59
2018-02-12T19:35:15.709Z,100726.55
2018-02-12T19:37:45.084Z,100731.64
2018-02-12T19:40:14.220Z,100734.16
2018-02-12T19:42:42.500Z,100728.55
2018-02-12T19:45:32.701Z,100730.77
2018-02-12T19:48:00.999Z,100730.90
2018-02-12T19:50:29.265Z,100740.90
2018-02-12T19:52:57.584Z,100736.63
2018-02-12T19:55:25.759Z,100740.91
2018-02-12T19:57:54.201Z,100748.38
2018-02-12T20:00:22.592Z,100744.43
2018-02-12T20:02:58.943Z,100746.95
2018-02-12T20:05:27.331Z,100740.12
2018-02-12T20:07:57.017Z,100738.89
2018-02-12T20:10:25.146Z,100740.98
2018-02-12T20:12:53.473Z,100741.72
2018-02-12T20:15:21.878Z,100741.59
2018-02-12T20:17:50.143Z,100742.46
2018-02-12T20:20:18.424Z,100735.27
2018-02-12T20:22:46.778Z,100742.98
2018-02-12T20:25:17.609Z,100748.64
2018-02-12T20:27:48.320Z,100753.82
2018-02-12T20:30:16.674Z,100752.03
2018-02-12T20:32:45.752Z,100744.28
2018-02-12T20:35:13.942Z,100755.72
2018-02-12T20:37:42.148Z,100759.23
2018-02-12T20:40:11.117Z,100759.33
2018-02-12T20:42:39.400Z,100755.33
2018-02-12T20:45:09.794Z,100760.50
2018-02-12T20:47:37.849Z,100762.68
2018-02-12T20:50:17.438Z,100760.94
2018-02-12T20:52:45.805Z,100762.33
2018-02-12T20:55:14.411Z,100762.64
2018-02-12T20:57:42.596Z,100764.47
2018-02-12T21:00:10.840Z,100758.53
2018-02-12T21:06:02.985Z,100755.72
2018-02-12T21:08:30.700Z,100755.53
2018-02-12T21:10:58.673Z,100759.08
2018-02-12T21:13:25.463Z,100759.48
2018-02-12T21:15:52.419Z,100763.03
2018-02-12T21:21:19.681Z,100762.80
2018-02-12T21:23:47.535Z,100760.91
2018-02-12T21:26:15.620Z,100764.11
2018-02-12T21:28:43.202Z,100762.30
2018-02-12T21:31:11.113Z,100764.73
2018-02-12T21:33:39.143Z,100761.57
2018-02-12T21:36:08.017Z,100765.41
2018-02-12T21:39:05.634Z,100759.08
2018-02-12T21:41:33.534Z,100752.16
2018-02-12T21:44:01.777Z,100761.69
2018-02-12T21:46:28.589Z,100766.40
2018-02-12T21:48:55.379Z,100756.61
2018-02-12T21:51:22.839Z,100758.86
2018-02-12T21:53:52.464Z,100762.51
2018-02-12T21:56:23.880Z,100763.20
2018-02-12T21:58:50.487Z,100762.92
2018-02-12T22:01:17.095Z,100754.12
2018-02-12T22:03:43.735Z,100759.84
2018-02-12T22:06:10.315Z,100750.20
2018-02-12T22:08:37.399Z,100757.84
2018-02-12T22:14:04.241Z,100766.50
2018-02-12T22:16:32.831Z,100757.09
2018-02-12T22:19:08.958Z,100750.69
2018-02-12T22:21:35.545Z,100753.02
2018-02-12T22:24:02.164Z,100757.80
2018-02-12T22:26:28.733Z,100754.69
2018-02-12T22:28:55.361Z,100748.41
2018-02-12T22:31:21.949Z,100752.02
2018-02-12T22:50:03.783Z,100748.50
2018-02-12T22:52:30.473Z,100747.23
2018-02-12T23:10:14.151Z,100748.14
2018-02-12T23:12:40.757Z,100750.48
2018-02-12T23:15:15.477Z,100751.38
2018-02-12T23:17:53.470Z,100749.64
2018-02-12T23:20:20.662Z,100744.84
